LGIR/HER METAR and TAF weather

Enter ICAO airport designator
Station Type Date Time Source
LGIR METAR 2022/12/01 00:20 UTC NOAA

LGIR 010020Z 18011KT 9999 FEW020 BKN025 BKN080 16/14 Q1012 NOSIG


Station Type Date Time Source
LGIR Decoded METAR 2022/12/01 00:20 UTC NOAA

Heraklion Airport , Greece (LGIR) 35-20N 025-11E 39M
Nov 30, 2022 - 07:20 PM EST / 2022.12.01 0020 UTC
Wind: from the S (180 degrees) at 13 MPH (11 KT):0
Visibility: greater than 7 mile(s):0
Sky conditions: mostly cloudy
Temperature: 60 F (16 C)
Dew Point: 57 F (14 C)
Relative Humidity: 87%
Pressure (altimeter): 29.88 in. Hg (1012 hPa)
ob: LGIR 010020Z 18011KT 9999 FEW020 BKN025 BKN080 16/14 Q1012 NOSIG
cycle: 0

Station Type Date Time Source
LGIR TAF 2022/11/30 18:12 UTC NOAA

TAF LGIR 301700Z 3018/0118 17012KT 9999 FEW018TCU SCT025 BKN080
TEMPO 3018/0103 18012G22KT PROB40
TEMPO 3018/0106 5000 RA SCT010 FEW018TCU BKN020 OVC080

Example: see airport list